Time;durP1;ratioP1;P1;durP2;ratioP2;P2;SDS_P1;SDS_P2;PMS_P1;PMS_P2;Temp;Humidity;BMP_temperature;BMP_pressure;BME280_temperature;BME280_humidity;BME280_pressure;Samples;Min_cycle;Max_cycle;Signal;HPM_P1;HPM_P2
2021/10/03 00:01:57;;;;;;;3.85;3.00;;;;;;;14.99;79.21;99719.13;5033703;28;20043;-73
2021/10/03 00:04:25;;;;;;;7.07;3.08;;;;;;;15.05;79.44;99709.34;5068269;28;20044;-73
2021/10/03 00:06:52;;;;;;;4.05;2.60;;;;;;;15.00;79.55;99704.63;5068192;28;20089;-74
2021/10/03 00:09:18;;;;;;;5.15;3.03;;;;;;;15.06;79.13;99687.63;5068143;28;20485;-74
2021/10/03 00:11:46;;;;;;;4.25;2.50;;;;;;;15.13;78.62;99695.66;5068222;28;20144;-74
2021/10/03 00:14:12;;;;;;;5.55;3.30;;;;;;;15.12;79.29;99702.88;5068137;28;20036;-73
2021/10/03 00:16:39;;;;;;;10.32;3.17;;;;;;;15.14;78.82;99705.38;5067289;28;20449;-73
2021/10/03 00:19:05;;;;;;;5.60;3.25;;;;;;;15.15;78.56;99701.66;5066828;28;20460;-74
2021/10/03 00:21:31;;;;;;;7.53;4.18;;;;;;;15.09;78.92;99703.31;5050540;28;20040;-74
2021/10/03 00:23:56;;;;;;;4.75;3.28;;;;;;;15.08;79.30;99703.56;5050511;28;20098;-73
2021/10/03 00:26:21;;;;;;;3.77;2.83;;;;;;;15.03;79.70;99698.84;5066845;28;20047;-74
2021/10/03 00:28:47;;;;;;;4.00;3.33;;;;;;;15.06;79.55;99698.41;5066792;28;20043;-74
2021/10/03 00:31:13;;;;;;;8.37;3.43;;;;;;;15.07;80.19;99715.34;5068297;28;20033;-73
2021/10/03 00:33:38;;;;;;;6.03;4.00;;;;;;;15.06;80.05;99719.09;5067997;28;20295;-73
2021/10/03 00:36:03;;;;;;;8.97;3.97;;;;;;;15.18;80.31;99723.53;5050082;28;20032;-73
2021/10/03 00:38:29;;;;;;;6.13;3.50;;;;;;;15.09;81.00;99716.75;5067967;28;20132;-73
2021/10/03 00:40:54;;;;;;;9.30;4.30;;;;;;;14.97;82.93;99726.56;5066836;28;20043;-73
2021/10/03 00:43:20;;;;;;;7.17;3.63;;;;;;;14.76;84.91;99735.78;5050335;28;20078;-73
2021/10/03 00:45:46;;;;;;;8.93;4.23;;;;;;;14.66;86.99;99717.44;5069310;28;20039;-73
2021/10/03 00:48:12;;;;;;;6.68;4.22;;;;;;;14.57;88.26;99710.66;5070434;28;20130;-73
2021/10/03 00:50:41;;;;;;;9.18;4.43;;;;;;;14.52;89.14;99702.41;5071458;28;20036;-73
2021/10/03 00:53:08;;;;;;;7.05;4.32;;;;;;;14.53;89.60;99704.03;5070457;28;20041;-74
2021/10/03 00:55:33;;;;;;;8.88;3.75;;;;;;;14.57;89.17;99703.41;5053750;28;20079;-74
2021/10/03 00:57:59;;;;;;;10.80;4.90;;;;;;;14.57;88.60;99679.25;5053774;28;20149;-73
2021/10/03 01:00:29;;;;;;;5.38;3.85;;;;;;;14.67;88.58;99676.09;5070199;28;20580;-73
2021/10/03 01:02:56;;;;;;;6.13;4.38;;;;;;;14.71;87.87;99676.50;5069966;28;20092;-73
2021/10/03 01:05:22;;;;;;;6.15;4.57;;;;;;;14.83;87.33;99666.72;5053304;28;20125;-74
2021/10/03 01:07:48;;;;;;;6.78;4.65;;;;;;;14.90;86.66;99667.47;5071165;28;20458;-73
2021/10/03 01:10:20;;;;;;;7.60;3.95;;;;;;;14.87;85.77;99646.44;5070807;28;20033;-73
2021/10/03 01:12:46;;;;;;;5.40;3.85;;;;;;;14.91;86.03;99646.81;5070387;28;20040;-74
2021/10/03 01:15:11;;;;;;;;;;;;;;;15.07;84.99;99630.13;5070282;28;20442;-73
2021/10/03 01:17:37;;;;;;;;;;;;;;;15.09;84.73;99630.75;5037264;28;19916;-73
2021/10/03 01:20:05;;;;;;;8.80;3.87;;;;;;;15.11;84.24;99619.78;5053108;28;19974;-74
2021/10/03 01:22:31;;;;;;;6.63;3.97;;;;;;;15.08;84.25;99610.31;5071015;28;20096;-73
2021/10/03 01:24:58;;;;;;;8.18;4.75;;;;;;;15.19;84.12;99601.53;5052930;28;20036;-73
2021/10/03 01:27:25;;;;;;;8.10;4.55;;;;;;;15.29;83.27;99594.78;5053165;28;20454;-73
2021/10/03 01:29:50;;;;;;;7.78;4.20;;;;;;;15.33;83.13;99601.38;5069318;28;20043;-74
2021/10/03 01:32:17;;;;;;;6.72;3.83;;;;;;;15.52;81.53;99611.16;5053234;28;20040;-73
2021/10/03 01:34:43;;;;;;;7.43;4.20;;;;;;;15.55;81.38;99610.69;5069606;28;20090;-73
2021/10/03 01:37:09;;;;;;;7.15;4.18;;;;;;;15.57;81.65;99591.66;5068486;28;20032;-73
2021/10/03 01:39:35;;;;;;;7.28;4.30;;;;;;;15.78;80.76;99590.38;5052468;28;20087;-73
2021/10/03 01:42:00;;;;;;;5.13;3.42;;;;;;;15.74;80.93;99575.75;5070530;28;20036;-73
2021/10/03 01:44:26;;;;;;;9.87;4.47;;;;;;;15.79;80.70;99581.28;5036261;28;20369;-73
2021/10/03 01:46:51;;;;;;;8.43;4.20;;;;;;;15.91;80.51;99576.78;5052647;28;20071;-73
2021/10/03 01:49:17;;;;;;;14.43;4.33;;;;;;;15.94;80.44;99559.34;5052627;28;20040;-73
2021/10/03 01:51:42;;;;;;;6.43;4.40;;;;;;;16.09;79.71;99573.25;5036068;28;20044;-74
2021/10/03 01:54:08;;;;;;;6.63;4.37;;;;;;;16.19;79.54;99562.75;5052578;28;20283;-74
2021/10/03 01:56:35;;;;;;;6.00;4.03;;;;;;;16.25;79.54;99569.94;5069697;28;20063;-74
2021/10/03 01:59:04;;;;;;;8.85;3.78;;;;;;;16.23;79.85;99568.50;5070109;28;20275;-74
2021/10/03 02:01:32;;;;;;;7.90;4.57;;;;;;;16.28;78.99;99563.25;5068805;28;20093;-74
2021/10/03 02:03:58;;;;;;;6.07;4.47;;;;;;;16.31;79.29;99552.00;5069374;28;20047;-73
2021/10/03 02:06:25;;;;;;;4.63;3.53;;;;;;;16.41;78.72;99576.53;5069681;28;20040;-74
2021/10/03 02:08:56;;;;;;;5.75;3.80;;;;;;;16.51;78.56;99569.78;5068996;28;20410;-74
2021/10/03 02:11:28;;;;;;;6.63;4.07;;;;;;;16.53;78.75;99548.78;5052069;28;20139;-73
2021/10/03 02:13:54;;;;;;;6.80;4.30;;;;;;;16.55;79.12;99570.94;5052397;28;20070;-73
2021/10/03 02:16:19;;;;;;;;;;;;;;;16.59;79.04;99566.75;5069853;28;20093;-74
2021/10/03 02:18:46;;;;;;;;;;;;;;;16.61;79.37;99559.25;5036007;28;20288;-73
2021/10/03 02:21:13;;;;;;;7.28;3.85;;;;;;;16.60;79.59;99574.59;5052114;28;19913;-73
2021/10/03 02:23:38;;;;;;;10.05;4.85;;;;;;;16.54;79.92;99572.00;5052009;28;20032;-73
2021/10/03 02:26:04;;;;;;;7.32;4.03;;;;;;;16.55;79.79;99557.47;5068356;28;20623;-74
2021/10/03 02:28:31;;;;;;;5.57;4.05;;;;;;;16.45;80.41;99564.22;5068620;28;20039;-74
2021/10/03 02:30:59;;;;;;;8.63;4.35;;;;;;;16.42;80.80;99580.88;5068465;28;20037;-73
2021/10/03 02:33:24;;;;;;;8.52;4.45;;;;;;;16.41;80.93;99565.78;5052013;28;20115;-73
2021/10/03 02:35:51;;;;;;;7.55;4.40;;;;;;;16.36;81.54;99560.22;5069308;28;20107;-74
2021/10/03 02:38:18;;;;;;;;;;;;;;;16.29;82.21;99572.16;5052064;28;20028;-74
2021/10/03 02:40:45;;;;;;;8.88;3.85;;;;;;;16.29;82.39;99578.34;5051572;28;19916;-73
2021/10/03 02:43:12;;;;;;;8.75;4.75;;;;;;;16.16;83.28;99567.78;5068417;28;20051;-74
2021/10/03 02:45:41;;;;;;;7.82;4.38;;;;;;;16.20;82.94;99568.94;5069184;28;20039;-73
2021/10/03 02:48:07;;;;;;;8.77;4.38;;;;;;;16.15;82.97;99566.13;5069040;28;20040;-74
2021/10/03 02:50:33;;;;;;;8.32;3.88;;;;;;;16.12;82.75;99563.91;5051525;28;20055;-74
2021/10/03 02:52:58;;;;;;;7.05;4.35;;;;;;;16.05;83.35;99566.66;5068951;28;20028;-74
2021/10/03 02:55:24;;;;;;;6.88;5.68;;;;;;;16.04;83.39;99549.69;5069069;28;20086;-73
2021/10/03 02:57:50;;;;;;;5.40;4.35;;;;;;;16.09;83.38;99551.72;5068890;28;20377;-74
2021/10/03 03:00:16;;;;;;;5.97;4.17;;;;;;;16.06;84.04;99562.94;5068933;28;20028;-74
2021/10/03 03:02:41;;;;;;;8.77;4.35;;;;;;;16.03;83.68;99549.91;5067680;28;20062;-74
2021/10/03 03:05:08;;;;;;;5.27;4.40;;;;;;;16.04;83.71;99554.28;5051226;28;20071;-73
2021/10/03 03:07:35;;;;;;;6.50;4.45;;;;;;;16.01;84.19;99560.09;5067188;28;20036;-73
2021/10/03 03:10:01;;;;;;;6.25;4.18;;;;;;;15.92;84.44;99546.13;5067328;28;20340;-73
2021/10/03 03:12:27;;;;;;;6.25;4.20;;;;;;;15.92;84.58;99546.13;5067761;28;20441;-73
2021/10/03 03:14:52;;;;;;;8.30;4.93;;;;;;;15.90;84.54;99542.84;5067751;28;20105;-73
2021/10/03 03:17:19;;;;;;;6.35;4.75;;;;;;;15.89;84.39;99549.25;5067580;28;20029;-73
2021/10/03 03:19:45;;;;;;;7.30;4.40;;;;;;;15.91;84.32;99546.34;5050886;28;20044;-73
2021/10/03 03:22:12;;;;;;;10.43;4.28;;;;;;;15.98;84.20;99555.97;5051120;28;20050;-74
2021/10/03 03:24:38;;;;;;;5.70;4.32;;;;;;;16.04;83.73;99547.00;5068385;28;20032;-73
2021/10/03 03:27:04;;;;;;;7.78;4.70;;;;;;;16.17;83.13;99532.53;5068542;28;20460;-74
2021/10/03 03:29:30;;;;;;;6.60;4.68;;;;;;;16.23;82.94;99553.16;5068338;28;20032;-73
2021/10/03 03:31:56;;;;;;;5.75;4.28;;;;;;;16.18;83.92;99554.91;5051068;28;20538;-74
2021/10/03 03:34:22;;;;;;;9.67;4.37;;;;;;;16.15;84.05;99555.34;5050617;28;20127;-73
2021/10/03 03:36:48;;;;;;;6.43;4.05;;;;;;;16.10;84.32;99553.34;5068470;28;20020;-73
2021/10/03 03:39:13;;;;;;;8.43;4.30;;;;;;;16.14;83.90;99554.53;5033916;28;20041;-74
2021/10/03 03:41:39;;;;;;;6.10;4.43;;;;;;;16.13;83.98;99547.53;5050787;28;20523;-74
2021/10/03 03:44:04;;;;;;;6.10;4.47;;;;;;;16.22;83.68;99548.84;5050646;28;20120;-74
2021/10/03 03:46:30;;;;;;;7.13;4.43;;;;;;;16.21;84.27;99554.44;5067263;28;20046;-74
2021/10/03 03:48:55;;;;;;;5.27;3.93;;;;;;;16.09;84.35;99550.91;5050373;28;20085;-74
2021/10/03 03:51:21;;;;;;;7.30;4.20;;;;;;;16.25;83.80;99561.03;5050806;28;20051;-73
2021/10/03 03:53:46;;;;;;;6.53;4.80;;;;;;;16.19;84.16;99556.53;5050645;28;20485;-73
2021/10/03 03:56:12;;;;;;;6.80;4.45;;;;;;;16.19;83.81;99553.84;5068176;28;20037;-73
2021/10/03 03:58:37;;;;;;;8.03;4.30;;;;;;;16.18;83.99;99558.41;5068314;28;20029;-73
2021/10/03 04:01:03;;;;;;;7.37;4.70;;;;;;;16.14;84.22;99556.41;5049903;28;20032;-73
2021/10/03 04:03:28;;;;;;;6.60;4.37;;;;;;;16.23;83.73;99555.88;5050648;28;20110;-73
2021/10/03 04:05:53;;;;;;;8.17;4.63;;;;;;;16.23;83.58;99560.44;5050040;28;20087;-73
2021/10/03 04:08:21;;;;;;;8.53;5.80;;;;;;;16.16;83.76;99552.44;5068210;28;20093;-73
2021/10/03 04:10:47;;;;;;;7.80;4.07;;;;;;;16.21;83.88;99566.03;5066897;28;20478;-73
2021/10/03 04:13:13;;;;;;;9.30;4.35;;;;;;;16.12;84.38;99562.00;5050504;28;20040;-73
2021/10/03 04:15:38;;;;;;;7.40;4.85;;;;;;;15.98;84.66;99534.44;5050096;28;20089;-73
2021/10/03 04:18:04;;;;;;;5.47;4.10;;;;;;;15.90;85.21;99548.22;5067977;28;20114;-73
2021/10/03 04:20:29;;;;;;;6.67;4.37;;;;;;;15.91;85.37;99560.63;5036459;28;20033;-73
2021/10/03 04:22:55;;;;;;;6.60;4.37;;;;;;;15.88;85.78;99571.03;5054498;28;20465;-73
2021/10/03 04:25:20;;;;;;;7.90;4.73;;;;;;;15.83;85.98;99571.72;5071645;28;20024;-73
2021/10/03 04:27:46;;;;;;;5.97;4.18;;;;;;;15.76;86.28;99566.41;5071629;28;20052;-73
2021/10/03 04:30:12;;;;;;;8.20;4.73;;;;;;;15.62;86.74;99540.69;5054016;28;20039;-73
2021/10/03 04:32:37;;;;;;;6.50;4.50;;;;;;;15.76;86.56;99562.91;5054355;28;20036;-74
2021/10/03 04:35:03;;;;;;;6.80;5.03;;;;;;;15.73;86.58;99566.88;5071462;28;20067;-74
2021/10/03 04:37:28;;;;;;;15.32;5.15;;;;;;;15.68;86.52;99557.78;5054060;28;20213;-73
2021/10/03 04:39:54;;;;;;;9.50;4.77;;;;;;;15.70;86.99;99574.53;5071499;28;20454;-73
2021/10/03 04:42:20;;;;;;;7.18;4.65;;;;;;;15.70;87.11;99569.13;5053796;28;20068;-73
2021/10/03 04:44:47;;;;;;;9.02;4.38;;;;;;;15.74;86.90;99571.19;5071504;28;20131;-73
2021/10/03 04:47:13;;;;;;;8.63;4.97;;;;;;;15.77;87.05;99575.28;5070266;28;20260;-73
2021/10/03 04:49:39;;;;;;;;;;;;;;;15.81;86.22;99579.19;5071734;28;20389;-73
2021/10/03 04:52:04;;;;;;;;;;;;;;;15.80;86.18;99574.84;5037544;28;19912;-73
2021/10/03 04:54:30;;;;;;;7.63;4.70;;;;;;;15.82;85.72;99578.94;5070359;28;19945;-73
2021/10/03 04:56:56;;;;;;;7.35;4.20;;;;;;;15.85;85.92;99572.31;5053513;28;20047;-74
2021/10/03 04:59:21;;;;;;;6.03;4.13;;;;;;;15.89;85.70;99559.22;5071149;28;20081;-73
2021/10/03 05:01:46;;;;;;;7.70;4.43;;;;;;;15.86;85.87;99576.63;5036368;28;20036;-73
2021/10/03 05:04:12;;;;;;;7.47;4.07;;;;;;;15.85;85.88;99572.31;5070054;28;20030;-73
2021/10/03 05:06:38;;;;;;;8.30;4.27;;;;;;;15.79;86.00;99579.41;5070748;28;20082;-73
2021/10/03 05:09:04;;;;;;;;;;;;;;;15.82;86.08;99578.94;5070302;28;20040;-73
2021/10/03 05:11:29;;;;;;;;;;;;;;;15.74;86.24;99586.53;5071558;28;19923;-73
2021/10/03 05:13:55;;;;;;;6.90;4.70;;;;;;;15.72;86.28;99588.59;5070223;28;19908;-74
2021/10/03 05:16:20;;;;;;;7.17;5.23;;;;;;;15.63;86.56;99577.28;5070644;28;20469;-73
2021/10/03 05:18:45;;;;;;;9.03;4.73;;;;;;;15.59;86.54;99578.75;5053378;28;20339;-74
2021/10/03 05:21:11;;;;;;;5.97;4.37;;;;;;;15.52;86.31;99569.94;5070066;28;20046;-73
2021/10/03 05:23:37;;;;;;;8.05;4.63;;;;;;;15.49;86.45;99559.66;5053066;28;20033;-73
2021/10/03 05:26:02;;;;;;;6.50;4.97;;;;;;;15.45;86.78;99564.63;5069838;28;20357;-73
2021/10/03 05:28:28;;;;;;;4.85;4.20;;;;;;;15.44;86.13;99552.25;5052909;28;20033;-73
2021/10/03 05:30:53;;;;;;;7.07;4.57;;;;;;;15.41;86.62;99566.97;5069767;28;20651;-73
2021/10/03 05:33:19;;;;;;;7.10;4.57;;;;;;;15.44;85.99;99565.69;5069614;28;20032;-73
2021/10/03 05:35:44;;;;;;;10.93;4.43;;;;;;;15.44;85.85;99563.00;5052907;28;20031;-74
2021/10/03 05:38:10;;;;;;;5.43;4.78;;;;;;;15.51;84.93;99560.25;5069480;28;20042;-73
2021/10/03 05:40:35;;;;;;;7.40;3.93;;;;;;;15.58;84.38;99561.81;5070444;28;20469;-73
2021/10/03 05:43:01;;;;;;;7.57;4.50;;;;;;;15.60;84.04;99550.84;5069541;28;20032;-73
2021/10/03 05:45:27;;;;;;;6.53;4.20;;;;;;;15.54;84.48;99549.03;5052699;28;20320;-74
2021/10/03 05:47:53;;;;;;;10.05;4.80;;;;;;;15.55;84.13;99545.31;5069351;28;20028;-73
2021/10/03 05:50:19;;;;;;;7.97;3.78;;;;;;;15.61;83.13;99549.78;5052550;28;20133;-73
2021/10/03 05:52:44;;;;;;;7.50;4.20;;;;;;;15.73;82.65;99548.03;5052554;28;20111;-73
2021/10/03 05:55:10;;;;;;;8.02;4.80;;;;;;;15.63;82.97;99535.06;5052583;28;20029;-73
2021/10/03 05:57:35;;;;;;;6.57;4.20;;;;;;;15.69;82.99;99551.38;5070132;28;20024;-73
2021/10/03 06:00:01;;;;;;;6.32;5.22;;;;;;;15.70;82.76;99548.47;5069958;28;20036;-73
2021/10/03 06:02:26;;;;;;;5.13;3.90;;;;;;;15.72;82.66;99541.00;5069696;28;20071;-73
2021/10/03 06:04:52;;;;;;;7.00;4.93;;;;;;;15.83;82.08;99542.13;5052028;28;20064;-73
2021/10/03 06:07:17;;;;;;;7.30;4.57;;;;;;;15.80;82.26;99537.16;5069219;28;20109;-72
2021/10/03 06:09:44;;;;;;;6.63;4.33;;;;;;;15.73;82.12;99539.13;5052381;28;20814;-73
2021/10/03 06:12:10;;;;;;;7.07;3.83;;;;;;;15.78;82.05;99534.72;5052527;28;20109;-73
2021/10/03 06:14:35;;;;;;;5.27;3.70;;;;;;;15.77;82.59;99543.81;5035645;28;20028;-73
2021/10/03 06:17:01;;;;;;;6.17;4.27;;;;;;;15.72;82.60;99545.56;5052230;28;20283;-73
2021/10/03 06:19:26;;;;;;;6.83;4.33;;;;;;;15.71;83.01;99542.06;5051932;28;20076;-73
2021/10/03 06:21:52;;;;;;;6.18;4.07;;;;;;;15.71;82.71;99549.28;5052450;28;20342;-73
2021/10/03 06:24:18;;;;;;;8.80;4.47;;;;;;;15.61;82.63;99533.63;5069672;28;20040;-73
2021/10/03 06:26:47;;;;;;;6.35;4.60;;;;;;;15.63;83.38;99547.69;5068457;28;20294;-74
2021/10/03 06:29:14;;;;;;;4.82;3.78;;;;;;;15.60;83.19;99546.28;5060595;28;20031;-74
2021/10/03 06:31:39;;;;;;;4.85;3.92;;;;;;;15.66;83.19;99551.78;5069637;28;20052;-73
2021/10/03 06:34:04;;;;;;;7.47;4.13;;;;;;;15.80;81.63;99539.84;5035021;28;20024;-73
2021/10/03 06:36:30;;;;;;;6.05;3.65;;;;;;;15.81;81.47;99531.56;5069380;28;20033;-74
2021/10/03 06:38:56;;;;;;;4.57;3.80;;;;;;;15.85;81.40;99523.88;5051544;28;20028;-74
2021/10/03 06:41:21;;;;;;;5.15;3.72;;;;;;;15.93;80.37;99536.19;5051818;28;20033;-73
2021/10/03 06:43:47;;;;;;;5.53;3.97;;;;;;;15.89;81.13;99537.69;5050858;28;20036;-73
2021/10/03 06:46:12;;;;;;;5.83;3.73;;;;;;;16.02;80.75;99542.91;5067991;28;20052;-73
2021/10/03 06:48:38;;;;;;;5.03;3.78;;;;;;;16.00;80.23;99537.75;5069275;28;20036;-73
2021/10/03 06:51:04;;;;;;;5.22;3.85;;;;;;;16.15;79.91;99544.59;5051299;28;20064;-73
2021/10/03 06:53:31;;;;;;;6.32;3.33;;;;;;;16.22;79.34;99539.91;5069395;28;20357;-73
2021/10/03 06:55:57;;;;;;;4.72;3.33;;;;;;;16.36;78.83;99530.59;5051252;28;20035;-74
2021/10/03 06:58:22;;;;;;;6.22;3.72;;;;;;;16.37;78.70;99526.88;5050948;28;20028;-73
2021/10/03 07:00:48;;;;;;;6.60;3.53;;;;;;;16.38;78.85;99541.97;5067406;28;20036;-73
2021/10/03 07:03:13;;;;;;;6.43;3.97;;;;;;;16.48;78.44;99538.72;5050996;28;20040;-73
2021/10/03 07:05:39;;;;;;;7.30;3.67;;;;;;;16.54;78.04;99539.69;5067812;28;20093;-73
2021/10/03 07:08:05;;;;;;;5.07;3.63;;;;;;;16.61;77.58;99530.44;5067499;28;20040;-74
2021/10/03 07:10:32;;;;;;;5.68;3.22;;;;;;;16.71;77.52;99542.50;5050374;28;20032;-74
2021/10/03 07:12:57;;;;;;;;;;;;;;;16.76;77.39;99548.03;5067901;28;20044;-74
2021/10/03 07:15:23;;;;;;;;;;;;;;;16.78;77.26;99540.53;5067379;28;20136;-74
2021/10/03 07:17:48;;;;;;;4.10;3.00;;;;;;;16.82;76.94;99545.25;5068198;28;19912;-74
2021/10/03 07:20:13;;;;;;;6.63;3.53;;;;;;;16.94;76.65;99541.75;5033785;28;20483;-74
2021/10/03 07:22:39;;;;;;;4.67;3.93;;;;;;;17.04;76.54;99533.91;5050735;28;20050;-74
2021/10/03 07:25:06;;;;;;;6.05;4.05;;;;;;;17.12;76.60;99557.00;5067643;28;20049;-74
2021/10/03 07:27:32;;;;;;;5.63;3.17;;;;;;;17.13;76.79;99545.16;5067413;28;20369;-74
2021/10/03 07:29:58;;;;;;;4.75;3.17;;;;;;;17.25;76.35;99560.28;5067657;28;20047;-74
2021/10/03 07:32:23;;;;;;;5.50;3.63;;;;;;;17.29;75.85;99545.25;5067774;28;20051;-74
2021/10/03 07:34:49;;;;;;;5.65;3.55;;;;;;;17.41;75.32;99553.34;5049721;28;20121;-74
2021/10/03 07:37:14;;;;;;;7.40;3.43;;;;;;;17.34;75.63;99552.66;5066565;28;20350;-73
2021/10/03 07:39:40;;;;;;;5.50;3.15;;;;;;;17.37;76.00;99545.97;5067592;28;20301;-74
2021/10/03 07:42:06;;;;;;;5.05;2.95;;;;;;;17.44;75.13;99546.66;5033481;28;20036;-74
2021/10/03 07:44:32;;;;;;;5.10;3.40;;;;;;;17.39;75.81;99557.34;5049988;28;20352;-74
2021/10/03 07:46:58;;;;;;;;;;;;;;;17.47;75.03;99540.81;5050333;28;20094;-74
2021/10/03 07:49:23;;;;;;;6.43;3.40;;;;;;;17.50;75.28;99556.50;5067240;28;20267;-74
2021/10/03 07:51:48;;;;;;;5.80;3.27;;;;;;;17.48;75.75;99554.03;5033474;28;20044;-74
2021/10/03 07:54:14;;;;;;;6.85;3.10;;;;;;;17.50;75.97;99564.59;5048556;28;20064;-74
2021/10/03 07:56:40;;;;;;;8.30;3.47;;;;;;;17.59;75.53;99565.88;5067731;28;20032;-74
2021/10/03 07:59:05;;;;;;;8.27;3.80;;;;;;;17.72;74.20;99548.59;5049428;28;20083;-74
2021/10/03 08:01:31;;;;;;;4.30;3.38;;;;;;;17.80;74.08;99555.53;5049521;28;20044;-74
2021/10/03 08:03:58;;;;;;;9.70;3.42;;;;;;;17.89;73.62;99563.03;5033332;28;20369;-73
2021/10/03 08:06:23;;;;;;;6.13;3.25;;;;;;;17.97;73.44;99539.41;5049757;28;20059;-74
2021/10/03 08:08:49;;;;;;;4.35;3.30;;;;;;;17.96;73.74;99559.34;5049663;28;20075;-74
2021/10/03 08:11:15;;;;;;;6.18;3.75;;;;;;;17.93;74.08;99549.84;5067627;28;20094;-74
2021/10/03 08:13:41;;;;;;;6.13;3.22;;;;;;;17.91;73.61;99550.13;5067548;28;20044;-74
2021/10/03 08:16:08;;;;;;;5.32;3.35;;;;;;;17.85;73.75;99559.16;5049760;28;20029;-74
2021/10/03 08:18:35;;;;;;;4.63;3.40;;;;;;;17.89;73.53;99562.22;5049739;28;20037;-74
2021/10/03 08:21:00;;;;;;;5.18;3.05;;;;;;;17.90;73.64;99555.75;5066417;28;20037;-74
2021/10/03 08:23:26;;;;;;;4.83;3.30;;;;;;;17.95;73.44;99565.84;5033303;28;20032;-74
2021/10/03 08:25:51;;;;;;;6.13;3.40;;;;;;;17.95;73.88;99550.44;5067255;28;20390;-74
2021/10/03 08:28:17;;;;;;;3.97;3.55;;;;;;;18.10;73.63;99574.25;5049569;28;20075;-74
2021/10/03 08:30:43;;;;;;;6.57;3.22;;;;;;;17.99;73.53;99581.31;5049625;28;20037;-74
2021/10/03 08:33:08;;;;;;;4.55;3.17;;;;;;;17.91;73.84;99587.06;5066487;28;20086;-75
2021/10/03 08:35:34;;;;;;;5.70;4.07;;;;;;;17.97;73.31;99596.94;5067150;28;20036;-74
2021/10/03 08:38:00;;;;;;;5.60;3.13;;;;;;;17.88;73.48;99587.56;5067843;28;20094;-74
2021/10/03 08:40:26;;;;;;;6.70;3.85;;;;;;;17.82;73.74;99585.84;5065806;28;20282;-74
2021/10/03 08:42:51;;;;;;;4.95;3.45;;;;;;;17.87;73.37;99597.56;5049600;28;20047;-74
2021/10/03 08:45:17;;;;;;;6.78;3.50;;;;;;;17.97;72.94;99599.63;5049327;28;20047;-74
2021/10/03 08:47:43;;;;;;;6.32;3.30;;;;;;;18.04;73.63;99594.91;5067065;28;20032;-74
2021/10/03 08:50:10;;;;;;;5.20;3.33;;;;;;;18.10;72.91;99575.06;5065973;28;20036;-74
2021/10/03 08:52:39;;;;;;;4.53;3.13;;;;;;;18.15;72.54;99587.84;5066719;28;20028;-74
2021/10/03 08:55:08;;;;;;;5.55;2.85;;;;;;;18.18;72.19;99592.75;5049261;28;20079;-74
2021/10/03 08:57:34;;;;;;;9.05;3.33;;;;;;;18.16;72.36;99581.38;5049329;28;20028;-74
2021/10/03 09:00:12;;;;;;;4.00;3.10;;;;;;;18.02;72.79;99596.22;5048530;28;20040;-74
2021/10/03 09:03:08;;;;;;;5.25;3.47;;;;;;;17.93;73.63;99587.66;5032254;28;20043;-74
2021/10/03 09:05:55;;;;;;;5.63;3.10;;;;;;;17.88;73.47;99585.69;5048987;28;20591;-74
2021/10/03 09:08:28;;;;;;;4.72;3.10;;;;;;;17.90;74.21;99599.75;5070468;28;20131;-74
2021/10/03 09:11:05;;;;;;;4.78;3.25;;;;;;;17.85;73.88;99586.16;5035932;28;20033;-74
2021/10/03 09:13:30;;;;;;;4.95;3.30;;;;;;;17.90;73.78;99588.16;5070591;28;20051;-74
2021/10/03 09:16:32;;;;;;;3.30;2.90;;;;;;;17.98;73.86;99589.66;5070008;28;20501;-74
2021/10/03 09:19:01;;;;;;;7.45;4.05;;;;;;;18.06;73.58;99592.81;5070021;28;20858;-74
2021/10/03 09:21:29;;;;;;;4.65;3.63;;;;;;;18.07;73.53;99588.22;5052388;28;20084;-73
2021/10/03 09:24:04;;;;;;;4.95;3.20;;;;;;;18.12;72.77;99597.25;5070054;28;20438;-73
2021/10/03 09:26:30;;;;;;;3.60;3.13;;;;;;;18.11;73.06;99584.78;5052051;28;20033;-74
2021/10/03 09:28:57;;;;;;;5.00;3.60;;;;;;;18.10;72.80;99588.56;5053022;28;20056;-74
2021/10/03 09:31:23;;;;;;;5.45;3.10;;;;;;;18.14;72.21;99588.88;5069114;28;20040;-74
2021/10/03 09:33:57;;;;;;;4.65;2.97;;;;;;;18.17;72.61;99604.63;5070216;28;20105;-74
2021/10/03 09:36:28;;;;;;;5.32;3.20;;;;;;;18.15;72.44;99587.84;5068669;28;20193;-74
2021/10/03 09:38:59;;;;;;;5.85;3.40;;;;;;;18.16;72.94;99599.47;5069315;28;20043;-73
2021/10/03 09:41:29;;;;;;;5.22;3.47;;;;;;;18.12;72.65;99621.56;5069263;28;20043;-74
2021/10/03 09:43:54;;;;;;;6.82;3.72;;;;;;;18.09;72.86;99619.31;5068623;28;20725;-74
2021/10/03 09:46:29;;;;;;;4.67;3.50;;;;;;;18.03;73.11;99620.28;5068453;28;20039;-74
2021/10/03 09:48:55;;;;;;;8.02;3.90;;;;;;;18.12;72.97;99628.81;5069530;28;20047;-73
2021/10/03 09:51:20;;;;;;;5.57;3.63;;;;;;;18.19;72.58;99624.13;5068377;28;20055;-74
2021/10/03 09:53:46;;;;;;;3.67;3.03;;;;;;;18.07;73.28;99620.63;5068566;28;20287;-74
2021/10/03 09:56:12;;;;;;;5.60;2.83;;;;;;;18.08;73.25;99633.91;5069448;28;20036;-73
2021/10/03 09:58:39;;;;;;;;;;;;;;;18.20;73.50;99627.66;5069870;28;20039;-74
2021/10/03 10:01:05;;;;;;;6.75;3.25;;;;;;;18.26;72.97;99629.38;5050785;28;19908;-74
2021/10/03 10:03:31;;;;;;;7.30;3.50;;;;;;;18.25;73.06;99625.84;5068363;28;20060;-74
2021/10/03 10:05:57;;;;;;;4.68;3.30;;;;;;;18.43;72.36;99626.75;5068227;28;20561;-74
2021/10/03 10:08:24;;;;;;;5.95;3.63;;;;;;;18.39;72.77;99634.50;5069397;28;20051;-74
2021/10/03 10:10:54;;;;;;;6.05;3.65;;;;;;;18.44;72.23;99622.97;5068900;28;20441;-74
2021/10/03 10:13:22;;;;;;;6.63;3.90;;;;;;;18.59;72.17;99617.00;5068075;28;20403;-74
2021/10/03 10:15:48;;;;;;;5.03;3.22;;;;;;;18.70;71.67;99625.06;5051400;28;20373;-73
2021/10/03 10:18:22;;;;;;;8.32;3.45;;;;;;;18.79;71.88;99627.41;5067937;28;20493;-74
2021/10/03 10:20:48;;;;;;;3.80;3.22;;;;;;;18.65;71.99;99613.34;5051313;28;20084;-74
2021/10/03 10:23:18;;;;;;;;;;;;;;;18.70;72.01;99635.06;5068575;28;20559;-74
2021/10/03 10:25:55;;;;;;;5.32;3.38;;;;;;;18.71;72.12;99628.63;5067503;28;20340;-74
2021/10/03 10:28:33;;;;;;;4.30;3.10;;;;;;;18.59;72.84;99644.03;5068287;28;20040;-73
2021/10/03 10:31:02;;;;;;;5.30;3.63;;;;;;;18.56;72.66;99646.16;5067368;28;20051;-73
2021/10/03 10:33:50;;;;;;;6.82;3.10;;;;;;;18.42;73.46;99647.53;5067310;28;20032;-73
2021/10/03 10:36:22;;;;;;;6.70;4.15;;;;;;;18.51;73.76;99659.59;5067356;28;20028;-73
2021/10/03 10:39:06;;;;;;;4.38;3.20;;;;;;;18.41;74.99;99664.81;5068012;28;20039;-74
2021/10/03 10:41:40;;;;;;;7.63;3.28;;;;;;;18.26;76.26;99680.69;5067754;28;20033;-74
2021/10/03 10:44:25;;;;;;;7.00;3.70;;;;;;;18.40;75.56;99673.97;5067357;28;20358;-74
2021/10/03 10:47:06;;;;;;;6.28;3.25;;;;;;;18.41;74.87;99678.31;5067445;28;20109;-74
2021/10/03 10:49:31;;;;;;;4.18;3.47;;;;;;;18.45;74.79;99660.56;5067212;28;20036;-74
2021/10/03 10:52:18;;;;;;;4.60;3.50;;;;;;;18.51;74.47;99658.78;5068613;28;20028;-74
2021/10/03 10:55:10;;;;;;;5.35;3.88;;;;;;;18.63;74.59;99664.94;5050320;28;20045;-73
2021/10/03 10:57:48;;;;;;;4.45;3.05;;;;;;;18.70;73.46;99670.22;5067367;28;20032;-73
2021/10/03 11:00:24;;;;;;;6.32;3.33;;;;;;;18.90;72.85;99667.09;5067137;28;20063;-73
2021/10/03 11:03:02;;;;;;;6.57;3.40;;;;;;;18.90;73.14;99650.88;5067659;28;20036;-73
2021/10/03 11:05:37;;;;;;;5.10;3.80;;;;;;;18.96;72.42;99661.53;5050103;28;20135;-74
2021/10/03 11:08:20;;;;;;;4.25;3.08;;;;;;;19.21;71.29;99637.84;5050068;28;20063;-74
2021/10/03 11:11:11;;;;;;;4.28;3.33;;;;;;;19.07;71.78;99648.19;5067728;28;20037;-73
2021/10/03 11:13:54;;;;;;;6.10;3.33;;;;;;;19.01;71.61;99639.16;5064225;28;20127;-74
2021/10/03 11:16:20;;;;;;;6.13;3.63;;;;;;;19.14;69.92;99633.41;5067811;28;20052;-73
2021/10/03 11:18:52;;;;;;;4.25;3.10;;;;;;;19.01;69.92;99638.31;5050241;28;20032;-74
2021/10/03 11:21:33;;;;;;;3.95;3.05;;;;;;;19.28;69.85;99628.50;5066812;28;20044;-74
2021/10/03 11:24:03;;;;;;;4.38;2.97;;;;;;;19.30;69.95;99629.06;5067922;28;20036;-73
2021/10/03 11:26:45;;;;;;;5.65;3.50;;;;;;;19.24;69.35;99613.00;5067594;28;20369;-74
2021/10/03 11:29:11;;;;;;;5.32;3.33;;;;;;;19.29;69.07;99608.50;5066123;28;20113;-74
2021/10/03 11:31:45;;;;;;;3.90;2.95;;;;;;;19.39;69.19;99614.06;5067672;28;20086;-74
2021/10/03 11:34:25;;;;;;;5.10;3.58;;;;;;;19.38;69.26;99612.41;5066877;28;20430;-73
2021/10/03 11:36:51;;;;;;;6.45;3.58;;;;;;;19.39;69.02;99613.25;5049995;28;20033;-74
2021/10/03 11:39:17;;;;;;;4.05;3.30;;;;;;;19.49;68.35;99599.84;5050015;28;20168;-74